Time,TemperatureF,DewpointF,PressureIn,WindDirection,WindDirectionDegrees,WindSpeedMPH,WindSpeedGustMPH,Humidity,HourlyPrecipIn,Conditions,Clouds,dailyrainin,SoftwareType,DateUTC
2013-01-29 00:04:00,31.8,29.3,29.91,WSW,248,0.0,0.0,89,0.00,,,0.00,WSDL version 420,2013-01-29 05:04:00,
2013-01-29 00:07:00,31.8,29.3,29.91,WSW,248,0.0,0.0,89,0.00,,,0.00,WSDL version 420,2013-01-29 05:07:00,
2013-01-29 00:09:00,31.8,29.3,29.91,WSW,248,0.0,0.0,89,0.00,,,0.00,WSDL version 420,2013-01-29 05:09:00,
2013-01-29 00:13:00,31.8,29.3,29.91,WSW,248,0.0,0.0,89,0.00,,,0.00,WSDL version 420,2013-01-29 05:13:00,
2013-01-29 00:19:00,31.8,29.3,29.91,WSW,248,0.0,0.0,89,0.00,,,0.00,WSDL version 420,2013-01-29 05:19:00,
2013-01-29 00:25:00,31.9,29.4,29.91,WSW,248,0.0,0.0,89,0.00,,,0.00,WSDL version 420,2013-01-29 05:25:00,
2013-01-29 00:31:00,32.0,29.2,29.91,WSW,248,0.0,0.0,88,0.00,,,0.00,WSDL version 420,2013-01-29 05:31:00,
2013-01-29 00:37:00,31.9,29.1,29.91,WSW,248,0.0,0.0,88,0.00,,,0.00,WSDL version 420,2013-01-29 05:37:00,
2013-01-29 00:43:00,32.0,29.2,29.91,WSW,248,0.0,0.0,88,0.00,,,0.00,WSDL version 420,2013-01-29 05:43:00,
2013-01-29 00:49:00,32.1,29.3,29.91,WSW,248,0.0,0.0,89,0.00,,,0.00,WSDL version 420,2013-01-29 05:49:00,
2013-01-29 00:55:00,32.2,29.3,29.91,WSW,248,0.0,0.0,89,0.00,,,0.00,WSDL version 420,2013-01-29 05:55:00,
2013-01-29 01:01:00,32.2,29.3,29.91,WSW,248,0.0,0.0,89,0.00,,,0.00,WSDL version 420,2013-01-29 06:01:00,
2013-01-29 01:07:00,32.4,29.5,29.91,WSW,248,0.0,0.0,89,0.00,,,0.00,WSDL version 420,2013-01-29 06:07:00,
2013-01-29 01:14:00,32.4,29.5,29.91,WSW,248,0.0,0.0,89,0.00,,,0.00,WSDL version 420,2013-01-29 06:14:00,
2013-01-29 01:20:00,32.4,29.5,29.91,WSW,248,0.0,0.0,89,0.00,,,0.00,WSDL version 420,2013-01-29 06:20:00,
2013-01-29 01:26:00,32.4,29.5,29.91,WSW,248,0.0,0.0,89,0.00,,,0.00,WSDL version 420,2013-01-29 06:26:00,
2013-01-29 01:32:00,32.5,29.6,29.91,WSW,248,0.0,0.0,89,0.00,,,0.00,WSDL version 420,2013-01-29 06:32:00,
2013-01-29 01:38:00,32.5,29.8,29.91,WSW,248,0.0,0.0,89,0.00,,,0.00,WSDL version 420,2013-01-29 06:38:00,
2013-01-29 01:44:00,32.5,29.9,29.91,WSW,248,0.0,0.0,90,0.00,,,0.00,WSDL version 420,2013-01-29 06:44:00,
2013-01-29 01:50:00,32.5,29.9,29.91,WSW,248,0.0,0.0,90,0.00,,,0.00,WSDL version 420,2013-01-29 06:50:00,
2013-01-29 01:56:00,32.5,29.9,29.91,WSW,248,0.0,0.0,90,0.00,,,0.00,WSDL version 420,2013-01-29 06:56:00,
2013-01-29 02:02:00,32.5,29.9,29.91,WSW,248,0.0,0.0,90,0.00,,,0.00,WSDL version 420,2013-01-29 07:02:00,
2013-01-29 02:08:00,32.5,29.9,29.91,WSW,248,0.0,0.0,90,0.00,,,0.00,WSDL version 420,2013-01-29 07:08:00,
2013-01-29 02:14:00,32.5,29.9,29.91,WSW,248,0.0,0.0,90,0.00,,,0.00,WSDL version 420,2013-01-29 07:14:00,
2013-01-29 02:20:00,32.5,29.9,29.91,WSW,248,0.0,0.0,90,0.00,,,0.00,WSDL version 420,2013-01-29 07:20:00,
2013-01-29 02:26:00,32.5,29.9,29.91,WSW,248,0.0,0.0,90,0.00,,,0.00,WSDL version 420,2013-01-29 07:26:00,
2013-01-29 02:32:00,32.5,29.9,29.91,WSW,248,0.0,0.0,90,0.00,,,0.00,WSDL version 420,2013-01-29 07:32:00,
2013-01-29 02:38:00,32.6,30.0,29.91,WSW,248,0.0,0.0,90,0.00,,,0.00,WSDL version 420,2013-01-29 07:38:00,
2013-01-29 02:44:00,32.7,30.1,29.91,WSW,248,0.0,1.1,90,0.00,,,0.00,WSDL version 420,2013-01-29 07:44:00,
2013-01-29 02:50:00,32.8,30.2,29.91,WSW,248,0.0,0.0,90,0.00,,,0.00,WSDL version 420,2013-01-29 07:50:00,
2013-01-29 02:56:00,32.9,30.3,29.91,WSW,248,0.0,1.1,90,0.00,,,0.00,WSDL version 420,2013-01-29 07:56:00,
2013-01-29 03:02:00,33.1,30.5,29.91,WSW,248,0.0,1.1,90,0.00,,,0.00,WSDL version 420,2013-01-29 08:02:00,
2013-01-29 03:08:00,33.1,30.5,29.91,WSW,248,0.0,0.9,90,0.00,,,0.00,WSDL version 420,2013-01-29 08:08:00,
2013-01-29 03:14:00,33.1,30.5,29.91,WSW,248,0.0,0.0,90,0.00,,,0.00,WSDL version 420,2013-01-29 08:14:00,
2013-01-29 03:20:00,32.9,30.3,29.91,WSW,248,0.0,0.0,90,0.00,,,0.00,WSDL version 420,2013-01-29 08:20:00,
2013-01-29 03:26:00,32.9,30.3,29.91,WSW,248,0.0,0.0,90,0.00,,,0.00,WSDL version 420,2013-01-29 08:26:00,
2013-01-29 03:32:00,32.9,30.5,29.91,WSW,248,0.0,0.0,90,0.00,,,0.00,WSDL version 420,2013-01-29 08:32:00,
2013-01-29 03:38:00,32.9,30.6,29.91,WSW,248,0.0,0.0,91,0.00,,,0.00,WSDL version 420,2013-01-29 08:38:00,
2013-01-29 03:45:00,33.0,30.7,29.91,WSW,248,0.0,0.0,91,0.00,,,0.00,WSDL version 420,2013-01-29 08:45:00,
2013-01-29 03:51:00,33.1,30.8,29.91,WSW,248,0.0,0.0,91,0.00,,,0.00,WSDL version 420,2013-01-29 08:51:00,
2013-01-29 03:57:00,33.1,30.8,29.91,WSW,248,0.0,0.0,91,0.00,,,0.00,WSDL version 420,2013-01-29 08:57:00,
2013-01-29 04:03:00,33.1,30.8,29.91,WSW,248,0.0,0.0,91,0.00,,,0.00,WSDL version 420,2013-01-29 09:03:00,
2013-01-29 04:09:00,33.1,30.9,29.91,WSW,248,0.0,0.0,92,0.00,,,0.00,WSDL version 420,2013-01-29 09:09:00,
2013-01-29 04:15:00,33.2,31.2,29.91,WSW,248,0.0,0.0,92,0.00,,,0.00,WSDL version 420,2013-01-29 09:15:00,
2013-01-29 04:21:00,33.2,31.2,29.91,WNW,293,0.0,0.0,92,0.00,,,0.00,WSDL version 420,2013-01-29 09:21:00,
2013-01-29 04:27:00,33.1,31.1,29.91,WNW,293,0.0,0.0,92,0.00,,,0.00,WSDL version 420,2013-01-29 09:27:00,
2013-01-29 04:33:00,33.4,31.2,29.91,NNW,338,0.2,2.0,92,0.00,,,0.00,WSDL version 420,2013-01-29 09:33:00,
2013-01-29 04:39:00,33.4,31.3,29.91,NNE,32,1.0,2.5,91,0.00,,,0.00,WSDL version 420,2013-01-29 09:39:00,
2013-01-29 04:45:00,33.3,31.3,29.91,NNW,345,0.0,2.5,92,0.00,,,0.00,WSDL version 420,2013-01-29 09:45:00,
2013-01-29 04:51:00,33.3,31.4,29.91,West,270,0.0,0.0,93,0.00,,,0.00,WSDL version 420,2013-01-29 09:51:00,
2013-01-29 04:57:00,33.3,31.5,29.91,WNW,293,0.0,1.6,93,0.00,,,0.00,WSDL version 420,2013-01-29 09:57:00,
2013-01-29 05:03:00,33.3,31.9,29.91,West,270,1.3,2.0,96,0.00,,,0.00,WSDL version 420,2013-01-29 10:03:00,
2013-01-29 05:09:00,33.3,32.4,29.91,West,270,0.0,2.0,97,0.00,,,0.00,WSDL version 420,2013-01-29 10:09:00,
2013-01-29 05:15:00,33.3,32.7,29.94,WNW,293,0.0,0.0,98,0.00,,,0.00,WSDL version 420,2013-01-29 10:15:00,
2013-01-29 05:21:00,33.3,32.8,29.94,WNW,293,0.0,0.0,99,0.00,,,0.00,WSDL version 420,2013-01-29 10:21:00,
2013-01-29 05:27:00,33.4,33.2,29.94,WNW,293,0.0,0.0,99,0.00,,,0.00,WSDL version 420,2013-01-29 10:27:00,
2013-01-29 05:33:00,33.7,33.4,29.94,WNW,293,0.0,0.0,99,0.00,,,0.00,WSDL version 420,2013-01-29 10:33:00,
2013-01-29 05:39:00,33.9,33.6,29.94,WNW,293,0.0,0.0,99,0.00,,,0.00,WSDL version 420,2013-01-29 10:39:00,
2013-01-29 05:45:00,34.3,34.1,29.94,WNW,293,0.0,1.3,99,0.00,,,0.00,WSDL version 420,2013-01-29 10:45:00,
2013-01-29 05:51:00,34.3,34.3,29.94,WNW,293,0.0,1.3,100,0.00,,,0.00,WSDL version 420,2013-01-29 10:51:00,
2013-01-29 05:57:00,34.3,34.3,29.97,WNW,293,0.0,0.0,100,0.00,,,0.00,WSDL version 420,2013-01-29 10:57:00,
2013-01-29 06:03:00,34.3,34.3,29.97,WNW,293,0.0,0.0,100,0.00,,,0.00,WSDL version 420,2013-01-29 11:03:00,
2013-01-29 06:10:00,34.3,34.3,29.97,WNW,293,0.0,0.0,100,0.00,,,0.00,WSDL version 420,2013-01-29 11:10:00,
2013-01-29 06:16:00,34.6,34.6,29.97,WSW,248,0.0,1.6,100,0.00,,,0.00,WSDL version 420,2013-01-29 11:16:00,
2013-01-29 06:22:00,34.4,34.4,29.97,SSW,210,0.4,1.1,100,0.00,,,0.00,WSDL version 420,2013-01-29 11:22:00,
2013-01-29 06:28:00,34.3,34.3,29.97,West,270,2.0,2.9,100,0.00,,,0.00,WSDL version 420,2013-01-29 11:28:00,
2013-01-29 06:34:00,-999.0,-99.9,29.97,WSW,248,0.6,2.9,-999,0.00,,,0.00,WSDL version 420,2013-01-29 11:34:00,
2013-01-29 06:40:00,34.3,34.3,29.97,ENE,68,0.0,1.1,100,0.00,,,0.00,WSDL version 420,2013-01-29 11:40:00,
2013-01-29 06:46:00,34.4,34.4,29.97,SW,225,0.0,1.6,100,0.00,,,0.00,WSDL version 420,2013-01-29 11:46:00,
2013-01-29 06:52:00,34.4,34.4,29.97,WSW,248,2.2,2.5,100,0.00,,,0.00,WSDL version 420,2013-01-29 11:52:00,
2013-01-29 06:58:00,34.7,34.7,30.00,West,270,1.3,2.5,100,0.00,,,0.00,WSDL version 420,2013-01-29 11:58:00,
2013-01-29 07:04:00,34.5,34.5,30.00,WSW,248,3.8,3.8,100,0.00,,,0.00,WSDL version 420,2013-01-29 12:04:00,
2013-01-29 07:10:00,34.6,34.6,30.00,SSW,210,0.4,3.8,100,0.00,,,0.00,WSDL version 420,2013-01-29 12:10:00,
2013-01-29 07:16:00,34.5,34.5,30.00,SW,225,1.0,1.3,100,0.00,,,0.00,WSDL version 420,2013-01-29 12:16:00,
2013-01-29 07:22:00,34.4,34.4,30.00,SW,225,0.3,1.6,100,0.00,,,0.00,WSDL version 420,2013-01-29 12:22:00,
2013-01-29 07:28:00,34.5,34.5,30.00,WSW,248,0.0,1.6,100,0.00,,,0.00,WSDL version 420,2013-01-29 12:28:00,
2013-01-29 07:34:00,34.5,34.5,30.00,SSW,203,0.0,2.0,100,0.00,,,0.00,WSDL version 420,2013-01-29 12:34:00,
2013-01-29 07:40:00,34.5,34.5,30.00,NE,45,0.0,2.0,100,0.00,,,0.00,WSDL version 420,2013-01-29 12:40:00,
2013-01-29 07:46:00,34.6,34.6,30.00,NE,45,0.0,0.0,100,0.00,,,0.00,WSDL version 420,2013-01-29 12:46:00,
2013-01-29 07:52:00,34.8,34.8,30.00,NNE,23,0.0,1.3,100,0.00,,,0.00,WSDL version 420,2013-01-29 12:52:00,
2013-01-29 07:58:00,34.7,34.7,30.00,NNE,23,0.0,0.0,100,0.00,,,0.00,WSDL version 420,2013-01-29 12:58:00,
2013-01-29 08:04:00,34.8,34.8,30.00,NNE,23,0.0,0.0,100,0.00,,,0.00,WSDL version 420,2013-01-29 13:04:00,
2013-01-29 08:10:00,34.8,34.8,30.00,North,-999,-999.0,-999.0,100,0.00,,,0.00,WSDL version 420,2013-01-29 13:10:00,
2013-01-29 08:17:00,34.9,34.9,30.00,North,-999,-999.0,-999.0,100,0.00,,,0.00,WSDL version 420,2013-01-29 13:17:00,
2013-01-29 08:23:00,34.9,34.9,30.00,East,90,0.0,0.0,100,0.00,,,0.00,WSDL version 420,2013-01-29 13:23:00,
2013-01-29 08:29:00,34.9,34.9,30.03,East,90,0.0,0.0,100,0.00,,,0.00,WSDL version 420,2013-01-29 13:29:00,
2013-01-29 08:35:00,35.1,35.1,30.03,East,90,0.0,0.0,100,0.00,,,0.00,WSDL version 420,2013-01-29 13:35:00,
2013-01-29 08:41:00,35.1,35.1,30.03,East,90,0.0,0.0,100,0.00,,,0.00,WSDL version 420,2013-01-29 13:41:00,
2013-01-29 08:47:00,35.3,35.3,30.03,East,90,0.0,0.0,100,0.00,,,0.00,WSDL version 420,2013-01-29 13:47:00,
2013-01-29 08:53:00,35.4,35.4,30.03,East,90,0.0,0.0,100,0.00,,,0.00,WSDL version 420,2013-01-29 13:53:00,
2013-01-29 08:59:00,35.4,35.4,30.03,East,90,0.0,0.0,100,0.00,,,0.00,WSDL version 420,2013-01-29 13:59:00,
2013-01-29 09:05:00,35.6,35.6,30.03,East,90,0.0,0.0,100,0.00,,,0.00,WSDL version 420,2013-01-29 14:05:00,
2013-01-29 09:11:00,35.7,35.7,30.03,North,360,0.0,0.0,100,0.00,,,0.00,WSDL version 420,2013-01-29 14:11:00,
2013-01-29 09:17:00,35.8,35.8,30.03,North,360,0.0,0.0,100,0.00,,,0.00,WSDL version 420,2013-01-29 14:17:00,
2013-01-29 09:23:00,36.1,36.1,30.03,North,360,0.0,0.0,100,0.00,,,0.00,WSDL version 420,2013-01-29 14:23:00,
2013-01-29 09:29:00,36.4,36.4,30.03,North,360,0.0,0.0,100,0.00,,,0.00,WSDL version 420,2013-01-29 14:29:00,
2013-01-29 09:35:00,36.7,36.7,30.03,North,360,0.0,0.0,100,0.00,,,0.00,WSDL version 420,2013-01-29 14:35:00,
2013-01-29 09:41:00,36.7,36.7,30.03,North,360,0.0,0.0,100,0.00,,,0.00,WSDL version 420,2013-01-29 14:41:00,
2013-01-29 09:47:00,37.0,37.0,30.03,North,360,0.2,0.9,100,0.00,,,0.00,WSDL version 420,2013-01-29 14:47:00,
2013-01-29 09:53:00,37.3,37.3,30.03,North,360,0.0,0.9,100,0.00,,,0.00,WSDL version 420,2013-01-29 14:53:00,
2013-01-29 09:59:00,37.6,37.6,30.03,North,360,0.0,0.9,100,0.00,,,0.00,WSDL version 420,2013-01-29 14:59:00,
2013-01-29 10:05:00,37.6,37.6,30.03,East,98,1.3,1.3,100,0.00,,,0.00,WSDL version 420,2013-01-29 15:05:00,
2013-01-29 10:11:00,38.0,38.0,30.03,South,173,1.7,2.2,100,0.00,,,0.00,WSDL version 420,2013-01-29 15:11:00,
2013-01-29 10:17:00,38.7,38.7,30.03,SE,135,2.2,2.9,100,0.00,,,0.00,WSDL version 420,2013-01-29 15:17:00,
2013-01-29 10:23:00,39.3,39.3,30.03,SSE,163,1.7,2.9,100,0.00,,,0.00,WSDL version 420,2013-01-29 15:23:00,
2013-01-29 10:29:00,39.4,39.4,30.03,SSW,195,0.8,2.7,100,0.00,,,0.00,WSDL version 420,2013-01-29 15:29:00,
2013-01-29 10:35:00,40.2,40.2,30.03,SW,225,0.0,2.5,100,0.00,,,0.00,WSDL version 420,2013-01-29 15:35:00,
2013-01-29 10:42:00,40.5,40.5,30.03,SE,128,1.4,2.5,100,0.00,,,0.00,WSDL version 420,2013-01-29 15:42:00,
2013-01-29 10:48:00,40.5,40.5,30.03,WSW,255,0.0,2.5,100,0.00,,,0.00,WSDL version 420,2013-01-29 15:48:00,
2013-01-29 10:54:00,40.5,40.5,30.03,SW,225,0.3,2.2,100,0.00,,,0.00,WSDL version 420,2013-01-29 15:54:00,
2013-01-29 11:00:00,40.8,40.8,30.03,SSW,203,1.5,2.7,100,0.04,,,0.04,WSDL version 420,2013-01-29 16:00:00,
2013-01-29 11:06:00,41.4,41.4,30.03,WNW,293,0.0,3.8,100,0.04,,,0.04,WSDL version 420,2013-01-29 16:06:00,
2013-01-29 11:12:00,41.8,41.8,30.03,South,188,1.9,3.8,100,0.04,,,0.04,WSDL version 420,2013-01-29 16:12:00,
2013-01-29 11:18:00,42.4,42.4,30.03,South,180,0.0,2.7,100,0.04,,,0.04,WSDL version 420,2013-01-29 16:18:00,
2013-01-29 11:24:00,42.8,42.8,30.03,NNW,338,0.0,2.7,100,0.04,,,0.04,WSDL version 420,2013-01-29 16:24:00,
2013-01-29 11:30:00,42.9,42.7,30.03,East,83,1.2,3.4,99,0.09,,,0.09,WSDL version 420,2013-01-29 16:30:00,
2013-01-29 11:36:00,43.5,43.2,30.03,SSE,165,1.3,3.1,99,0.09,,,0.09,WSDL version 420,2013-01-29 16:36:00,
2013-01-29 11:42:00,44.3,44.0,30.03,SW,219,0.6,2.5,99,0.09,,,0.09,WSDL version 420,2013-01-29 16:42:00,
2013-01-29 11:48:00,44.8,44.5,30.03,SE,146,2.2,2.9,99,0.09,,,0.09,WSDL version 420,2013-01-29 16:48:00,
2013-01-29 11:54:00,45.8,45.5,30.03,SE,143,2.3,3.8,99,0.09,,,0.13,WSDL version 420,2013-01-29 16:54:00,
2013-01-29 12:00:00,46.5,45.7,30.03,SSE,150,3.5,3.8,97,0.09,,,0.13,WSDL version 420,2013-01-29 17:00:00,
2013-01-29 12:06:00,46.9,45.9,30.03,SE,124,3.1,4.7,96,0.09,,,0.13,WSDL version 420,2013-01-29 17:06:00,
2013-01-29 12:12:00,47.8,45.9,30.03,ESE,113,4.3,4.9,91,0.13,,,0.17,WSDL version 420,2013-01-29 17:12:00,
2013-01-29 12:18:00,47.1,45.2,30.03,ENE,75,2.8,4.9,94,0.13,,,0.17,WSDL version 420,2013-01-29 17:18:00,
2013-01-29 12:24:00,47.6,46.4,30.03,SW,214,1.3,3.8,96,0.13,,,0.17,WSDL version 420,2013-01-29 17:24:00,
2013-01-29 12:30:00,47.0,45.7,30.03,SW,236,2.6,6.0,96,0.08,,,0.17,WSDL version 420,2013-01-29 17:30:00,
2013-01-29 12:36:00,46.6,45.3,30.03,SW,233,1.9,4.3,94,0.08,,,0.17,WSDL version 420,2013-01-29 17:36:00,
2013-01-29 12:43:00,46.2,44.5,30.00,South,180,3.1,3.8,92,0.08,,,0.17,WSDL version 420,2013-01-29 17:43:00,
2013-01-29 12:49:00,46.2,44.4,30.00,SW,225,3.0,3.8,93,0.08,,,0.17,WSDL version 420,2013-01-29 17:49:00,
2013-01-29 12:55:00,46.7,44.7,30.00,South,180,3.6,3.6,92,0.04,,,0.17,WSDL version 420,2013-01-29 17:55:00,
2013-01-29 13:01:00,46.9,44.2,30.03,SSE,158,4.2,4.9,89,0.04,,,0.17,WSDL version 420,2013-01-29 18:01:00,
2013-01-29 13:07:00,46.0,43.9,30.03,South,173,3.2,4.9,92,0.04,,,0.17,WSDL version 420,2013-01-29 18:07:00,
2013-01-29 13:13:00,45.4,43.1,30.00,South,188,1.9,4.9,91,0.00,,,0.17,WSDL version 420,2013-01-29 18:13:00,
2013-01-29 13:19:00,45.1,42.9,30.00,SE,128,6.3,7.2,91,0.00,,,0.17,WSDL version 420,2013-01-29 18:19:00,
2013-01-29 13:25:00,43.9,41.2,30.00,ESE,120,3.8,7.2,91,0.00,,,0.17,WSDL version 420,2013-01-29 18:25:00,
2013-01-29 13:31:00,43.6,41.5,30.00,South,188,1.7,6.0,92,0.00,,,0.17,WSDL version 420,2013-01-29 18:31:00,
2013-01-29 13:37:00,43.6,41.7,30.00,East,90,2.6,3.1,92,0.00,,,0.17,WSDL version 420,2013-01-29 18:37:00,
2013-01-29 13:43:00,43.0,40.7,30.00,East,90,2.6,5.6,91,0.00,,,0.17,WSDL version 420,2013-01-29 18:43:00,
2013-01-29 13:49:00,42.9,40.6,30.00,East,90,2.1,5.6,92,0.00,,,0.17,WSDL version 420,2013-01-29 18:49:00,
2013-01-29 13:55:00,42.9,40.6,30.00,ESE,113,2.6,4.9,91,0.00,,,0.17,WSDL version 420,2013-01-29 18:55:00,
2013-01-29 14:01:00,42.4,40.7,30.00,SSE,165,3.6,4.7,93,0.00,,,0.17,WSDL version 420,2013-01-29 19:01:00,
2013-01-29 14:07:00,42.1,40.2,30.00,ESE,105,3.7,4.0,93,0.00,,,0.17,WSDL version 420,2013-01-29 19:07:00,
2013-01-29 14:13:00,41.7,39.9,30.00,ESE,120,3.7,4.3,93,0.00,,,0.17,WSDL version 420,2013-01-29 19:13:00,
2013-01-29 14:19:00,41.4,39.7,30.00,East,96,4.0,5.6,93,0.00,,,0.17,WSDL version 420,2013-01-29 19:19:00,
2013-01-29 14:25:00,40.7,39.0,30.00,ESE,120,3.1,5.6,93,0.00,,,0.17,WSDL version 420,2013-01-29 19:25:00,
2013-01-29 14:31:00,40.4,38.5,30.00,ESE,120,3.7,5.4,93,0.00,,,0.17,WSDL version 420,2013-01-29 19:31:00,
2013-01-29 14:37:00,39.8,38.3,30.00,ESE,105,1.6,5.4,94,0.00,,,0.17,WSDL version 420,2013-01-29 19:37:00,
2013-01-29 14:43:00,39.5,38.1,30.03,ESE,120,2.9,4.3,94,0.00,,,0.17,WSDL version 420,2013-01-29 19:43:00,
2013-01-29 14:49:00,39.0,37.9,30.03,South,180,2.5,4.3,96,0.00,,,0.17,WSDL version 420,2013-01-29 19:49:00,
2013-01-29 14:55:00,38.8,37.6,30.03,SE,128,2.5,6.3,96,0.00,,,0.17,WSDL version 420,2013-01-29 19:55:00,
2013-01-29 15:00:00,38.6,37.7,30.03,SSE,158,5.0,6.5,97,0.00,,,0.17,WSDL version 420,2013-01-29 20:00:00,
2013-01-29 15:03:00,38.3,37.2,30.03,SSE,149,4.7,6.5,96,0.00,,,0.17,WSDL version 420,2013-01-29 20:03:00,
2013-01-29 15:10:00,38.0,36.9,30.03,SE,135,2.3,6.5,97,0.00,,,0.17,WSDL version 420,2013-01-29 20:10:00,
2013-01-29 15:16:00,37.9,37.4,30.03,SSE,153,4.8,6.5,98,0.00,,,0.17,WSDL version 420,2013-01-29 20:16:00,
2013-01-29 15:22:00,37.8,37.2,30.03,South,180,3.8,6.5,98,0.00,,,0.17,WSDL version 420,2013-01-29 20:22:00,
2013-01-29 15:28:00,37.5,36.9,30.03,ESE,120,4.3,6.0,98,0.00,,,0.17,WSDL version 420,2013-01-29 20:28:00,
2013-01-29 15:34:00,37.3,36.7,30.03,ESE,105,3.6,6.0,98,0.00,,,0.17,WSDL version 420,2013-01-29 20:34:00,
2013-01-29 15:40:00,37.0,36.8,30.03,East,98,3.8,4.9,99,0.00,,,0.17,WSDL version 420,2013-01-29 20:40:00,
2013-01-29 15:46:00,37.0,36.8,30.03,SE,135,1.6,4.9,99,0.00,,,0.17,WSDL version 420,2013-01-29 20:46:00,
2013-01-29 15:52:00,37.0,36.8,30.03,East,90,1.5,5.8,99,0.00,,,0.17,WSDL version 420,2013-01-29 20:52:00,
2013-01-29 15:58:00,36.9,36.6,30.03,SE,135,2.1,4.3,99,0.00,,,0.17,WSDL version 420,2013-01-29 20:58:00,
2013-01-29 16:04:00,36.9,36.9,30.03,SE,135,1.8,3.8,100,0.00,,,0.17,WSDL version 420,2013-01-29 21:04:00,
2013-01-29 16:10:00,36.9,36.9,30.03,SSW,210,1.4,3.8,100,0.00,,,0.17,WSDL version 420,2013-01-29 21:10:00,
2013-01-29 16:16:00,36.7,36.7,30.03,ESE,120,1.9,3.8,100,0.00,,,0.17,WSDL version 420,2013-01-29 21:16:00,
2013-01-29 16:22:00,36.8,36.8,30.03,SW,225,3.1,3.6,100,0.00,,,0.17,WSDL version 420,2013-01-29 21:22:00,
2013-01-29 16:28:00,36.7,36.7,30.03,SE,141,2.9,4.3,100,0.00,,,0.17,WSDL version 420,2013-01-29 21:28:00,
2013-01-29 16:34:00,36.7,36.7,30.03,WSW,248,0.0,4.3,100,0.00,,,0.17,WSDL version 420,2013-01-29 21:34:00,
2013-01-29 16:41:00,36.7,36.7,30.03,SE,135,2.3,3.6,100,0.00,,,0.17,WSDL version 420,2013-01-29 21:41:00,
2013-01-29 16:47:00,36.7,36.7,30.03,SE,143,3.2,3.6,100,0.00,,,0.17,WSDL version 420,2013-01-29 21:47:00,
2013-01-29 16:53:00,36.7,36.7,30.03,SSW,203,1.0,3.6,100,0.00,,,0.17,WSDL version 420,2013-01-29 21:53:00,
2013-01-29 16:59:00,36.7,36.7,30.06,SSE,158,2.3,2.7,100,0.00,,,0.17,WSDL version 420,2013-01-29 21:59:00,
2013-01-29 17:05:00,36.5,36.5,30.06,NW,323,0.5,2.7,100,0.00,,,0.17,WSDL version 420,2013-01-29 22:05:00,
2013-01-29 17:11:00,36.7,36.7,30.06,ESE,120,1.2,1.6,100,0.00,,,0.17,WSDL version 420,2013-01-29 22:11:00,
2013-01-29 17:17:00,36.7,36.7,30.06,South,180,1.0,2.0,100,0.00,,,0.17,WSDL version 420,2013-01-29 22:17:00,
2013-01-29 17:23:00,36.5,36.5,30.06,SSW,203,1.4,2.5,100,0.00,,,0.17,WSDL version 420,2013-01-29 22:23:00,
2013-01-29 17:29:00,36.3,36.3,30.06,WSW,248,0.0,2.9,100,0.00,,,0.17,WSDL version 420,2013-01-29 22:29:00,
2013-01-29 17:35:00,36.3,36.3,30.06,ESE,120,2.5,2.7,100,0.04,,,0.21,WSDL version 420,2013-01-29 22:35:00,
2013-01-29 17:41:00,36.1,36.1,30.06,SSW,203,2.9,3.1,100,0.04,,,0.21,WSDL version 420,2013-01-29 22:41:00,
2013-01-29 17:47:00,36.1,36.1,30.03,SW,225,0.3,3.6,100,0.04,,,0.21,WSDL version 420,2013-01-29 22:47:00,
2013-01-29 17:53:00,36.0,36.0,30.03,South,176,3.1,3.8,100,0.04,,,0.21,WSDL version 420,2013-01-29 22:53:00,
2013-01-29 17:59:00,36.0,36.0,30.03,South,173,2.0,4.0,100,0.04,,,0.21,WSDL version 420,2013-01-29 22:59:00,
2013-01-29 18:05:00,36.0,36.0,30.03,SW,225,1.3,4.0,100,0.04,,,0.21,WSDL version 420,2013-01-29 23:05:00,
2013-01-29 18:11:00,36.0,36.0,30.03,SW,225,1.3,1.3,100,0.04,,,0.21,WSDL version 420,2013-01-29 23:11:00,
2013-01-29 18:17:00,36.0,36.0,30.03,North,-999,-999.0,-999.0,100,0.04,,,0.21,WSDL version 420,2013-01-29 23:17:00,
2013-01-29 18:23:00,35.8,35.8,30.03,South,180,2.9,2.9,100,0.04,,,0.21,WSDL version 420,2013-01-29 23:23:00,
2013-01-29 18:29:00,36.0,36.0,30.03,South,180,2.9,2.9,100,0.04,,,0.21,WSDL version 420,2013-01-29 23:29:00,
2013-01-29 18:35:00,35.9,35.9,30.03,North,-999,-999.0,-999.0,100,0.00,,,0.21,WSDL version 420,2013-01-29 23:35:00,
2013-01-29 18:41:00,35.8,35.8,30.03,North,-999,-999.0,-999.0,100,0.00,,,0.21,WSDL version 420,2013-01-29 23:41:00,
2013-01-29 18:48:00,35.8,35.8,30.03,North,-999,-999.0,-999.0,100,0.00,,,0.21,WSDL version 420,2013-01-29 23:48:00,
2013-01-29 18:54:00,35.8,35.8,30.03,North,-999,-999.0,-999.0,100,0.00,,,0.21,WSDL version 420,2013-01-29 23:54:00,
2013-01-29 19:00:00,35.8,35.8,30.06,North,-999,-999.0,-999.0,100,0.00,,,0.21,WSDL version 420,2013-01-30 00:00:00,
2013-01-29 19:06:00,35.8,35.8,30.06,North,-999,-999.0,-999.0,100,0.00,,,0.21,WSDL version 420,2013-01-30 00:06:00,
2013-01-29 19:12:00,35.8,35.8,30.06,North,-999,-999.0,-999.0,100,0.00,,,0.21,WSDL version 420,2013-01-30 00:12:00,
2013-01-29 19:18:00,35.8,35.8,30.06,North,-999,-999.0,-999.0,100,0.00,,,0.21,WSDL version 420,2013-01-30 00:18:00,
2013-01-29 19:24:00,35.7,35.7,30.06,North,-999,-999.0,-999.0,100,0.00,,,0.21,WSDL version 420,2013-01-30 00:24:00,
2013-01-29 19:30:00,35.7,35.7,30.06,North,-999,-999.0,-999.0,100,0.00,,,0.21,WSDL version 420,2013-01-30 00:30:00,
2013-01-29 19:36:00,35.7,35.7,30.06,North,-999,-999.0,-999.0,100,0.00,,,0.21,WSDL version 420,2013-01-30 00:36:00,
2013-01-29 19:42:00,35.8,35.8,30.06,North,-999,-999.0,-999.0,100,0.00,,,0.21,WSDL version 420,2013-01-30 00:42:00,
2013-01-29 19:48:00,35.7,35.7,30.06,North,-999,-999.0,-999.0,100,0.00,,,0.21,WSDL version 420,2013-01-30 00:48:00,
2013-01-29 19:54:00,35.7,35.7,30.06,NW,315,0.0,0.0,100,0.00,,,0.21,WSDL version 420,2013-01-30 00:54:00,
2013-01-29 20:00:00,35.6,35.6,30.06,NW,315,0.0,0.0,100,0.00,,,0.21,WSDL version 420,2013-01-30 01:00:00,
2013-01-29 20:06:00,35.6,35.6,30.06,North,-999,-999.0,-999.0,100,0.00,,,0.21,WSDL version 420,2013-01-30 01:06:00,
2013-01-29 20:12:00,35.6,35.6,30.06,North,-999,-999.0,-999.0,100,0.00,,,0.21,WSDL version 420,2013-01-30 01:12:00,
2013-01-29 20:18:00,35.6,35.6,30.06,North,-999,-999.0,-999.0,100,0.00,,,0.21,WSDL version 420,2013-01-30 01:18:00,
2013-01-29 20:24:00,35.6,35.6,30.06,North,-999,-999.0,-999.0,100,0.00,,,0.21,WSDL version 420,2013-01-30 01:24:00,
2013-01-29 20:31:00,35.7,35.7,30.06,North,-999,-999.0,-999.0,100,0.00,,,0.21,WSDL version 420,2013-01-30 01:31:00,
2013-01-29 20:37:00,35.6,35.6,30.06,North,-999,-999.0,-999.0,100,0.00,,,0.21,WSDL version 420,2013-01-30 01:37:00,
2013-01-29 20:43:00,35.6,35.6,30.06,South,180,2.2,2.2,100,0.00,,,0.21,WSDL version 420,2013-01-30 01:43:00,
2013-01-29 20:49:00,35.6,35.6,30.06,South,180,2.2,2.2,100,0.00,,,0.21,WSDL version 420,2013-01-30 01:49:00,
2013-01-29 20:55:00,35.6,35.6,30.06,South,180,2.2,2.2,100,0.00,,,0.21,WSDL version 420,2013-01-30 01:55:00,
2013-01-29 21:01:00,35.6,35.6,30.06,South,180,2.5,2.5,100,0.00,,,0.21,WSDL version 420,2013-01-30 02:01:00,
2013-01-29 21:07:00,35.6,35.6,30.06,South,180,2.5,2.5,100,0.00,,,0.21,WSDL version 420,2013-01-30 02:07:00,
2013-01-29 21:13:00,35.6,35.6,30.06,North,-999,-999.0,-999.0,100,0.00,,,0.21,WSDL version 420,2013-01-30 02:13:00,
2013-01-29 21:19:00,35.6,35.6,30.06,North,-999,-999.0,-999.0,100,0.00,,,0.21,WSDL version 420,2013-01-30 02:19:00,
2013-01-29 21:25:00,35.6,35.6,30.06,SSE,158,2.0,2.0,100,0.00,,,0.21,WSDL version 420,2013-01-30 02:25:00,
2013-01-29 21:31:00,35.6,35.6,30.06,East,90,0.0,2.0,100,0.00,,,0.21,WSDL version 420,2013-01-30 02:31:00,
2013-01-29 21:37:00,35.6,35.6,30.06,South,180,2.2,2.2,100,0.00,,,0.21,WSDL version 420,2013-01-30 02:37:00,
2013-01-29 21:43:00,35.7,35.7,30.03,SSE,158,2.5,2.5,100,0.00,,,0.21,WSDL version 420,2013-01-30 02:43:00,
2013-01-29 21:49:00,35.6,35.6,30.03,SE,135,2.5,2.5,100,0.00,,,0.21,WSDL version 420,2013-01-30 02:49:00,
2013-01-29 21:55:00,35.6,35.6,30.03,WSW,255,0.8,2.5,100,0.00,,,0.21,WSDL version 420,2013-01-30 02:55:00,
2013-01-29 22:01:00,35.7,35.7,30.03,NW,315,0.0,2.5,100,0.00,,,0.21,WSDL version 420,2013-01-30 03:01:00,
2013-01-29 22:07:00,35.8,35.8,30.03,NW,315,0.0,0.0,100,0.00,,,0.21,WSDL version 420,2013-01-30 03:07:00,
2013-01-29 22:13:00,35.8,35.8,30.03,North,-999,-999.0,-999.0,100,0.00,,,0.21,WSDL version 420,2013-01-30 03:13:00,
2013-01-29 22:19:00,35.8,35.8,30.03,East,90,1.9,3.8,100,0.00,,,0.21,WSDL version 420,2013-01-30 03:19:00,
2013-01-29 22:25:00,35.9,35.9,30.03,SSE,158,2.3,3.8,100,0.00,,,0.21,WSDL version 420,2013-01-30 03:25:00,
2013-01-29 22:31:00,35.8,35.8,30.03,ESE,108,1.9,3.1,100,0.00,,,0.21,WSDL version 420,2013-01-30 03:31:00,
2013-01-29 22:37:00,36.0,36.0,30.03,SE,135,1.6,3.6,100,0.00,,,0.21,WSDL version 420,2013-01-30 03:37:00,
2013-01-29 22:43:00,36.1,36.1,30.03,WSW,240,1.8,2.9,100,-99.99,,,-99.99,WSDL version 420,2013-01-30 03:43:00,
2013-01-29 22:49:00,36.0,36.0,30.03,SW,225,0.0,2.9,100,0.00,,,0.21,WSDL version 420,2013-01-30 03:49:00,
2013-01-29 22:55:00,36.1,36.1,30.03,SSE,158,0.0,1.3,100,0.00,,,0.21,WSDL version 420,2013-01-30 03:55:00,
2013-01-29 23:02:00,36.0,36.0,30.03,SE,143,1.0,1.6,100,0.00,,,0.21,WSDL version 420,2013-01-30 04:02:00,
2013-01-29 23:08:00,36.0,36.0,30.03,East,90,0.0,2.5,100,0.00,,,0.21,WSDL version 420,2013-01-30 04:08:00,
2013-01-29 23:14:00,36.0,36.0,30.03,SSW,198,0.4,2.5,100,0.00,,,0.21,WSDL version 420,2013-01-30 04:14:00,
2013-01-29 23:20:00,36.0,36.0,30.03,NW,315,0.9,1.3,100,0.00,,,0.21,WSDL version 420,2013-01-30 04:20:00,
2013-01-29 23:26:00,36.0,36.0,30.03,East,83,0.0,1.3,100,0.00,,,0.21,WSDL version 420,2013-01-30 04:26:00,
2013-01-29 23:32:00,36.0,36.0,30.03,ESE,113,0.3,2.7,100,0.00,,,0.21,WSDL version 420,2013-01-30 04:32:00,
2013-01-29 23:38:00,36.1,36.1,30.03,SSE,150,1.0,2.7,100,0.00,,,0.21,WSDL version 420,2013-01-30 04:38:00,
2013-01-29 23:44:00,36.1,36.1,30.03,SW,225,0.0,1.6,100,0.00,,,0.21,WSDL version 420,2013-01-30 04:44:00,
2013-01-29 23:50:00,36.1,36.1,30.03,SSE,163,1.8,2.5,100,0.00,,,0.21,WSDL version 420,2013-01-30 04:50:00,
2013-01-29 23:56:00,36.1,36.1,30.03,South,169,0.3,2.5,100,0.00,,,0.21,WSDL version 420,2013-01-30 04:56:00,